Time;durP1;ratioP1;P1;durP2;ratioP2;P2;SDS_P1;SDS_P2;PMS_P1;PMS_P2;Temp;Humidity;BMP_temperature;BMP_pressure;BME280_temperature;BME280_humidity;BME280_pressure;Samples;Min_cycle;Max_cycle;Signal;HPM_P1;HPM_P2
2023/03/09 00:01:43;;;;;;;15.82;8.35;;;0.60;99.90;;;;;;5014816;28;20220;-91
2023/03/09 00:04:13;;;;;;;16.20;9.13;;;0.80;99.90;;;;;;4965999;28;20161;-91
2023/03/09 00:06:39;;;;;;;16.92;9.65;;;0.60;99.90;;;;;;4988286;28;20038;-91
2023/03/09 00:09:05;;;;;;;15.05;8.68;;;0.50;99.90;;;;;;4987791;28;20474;-91
2023/03/09 00:11:31;;;;;;;14.50;7.88;;;0.50;99.90;;;;;;5007062;28;20041;-92
2023/03/09 00:13:56;;;;;;;14.55;8.60;;;0.60;99.90;;;;;;4988433;28;20433;-92
2023/03/09 00:16:29;;;;;;;17.40;9.25;;;0.50;99.90;;;;;;4989623;28;20026;-93
2023/03/09 00:18:59;;;;;;;14.27;8.82;;;0.50;99.90;;;;;;5007172;28;20030;-93
2023/03/09 00:21:36;;;;;;;14.82;8.63;;;0.50;99.90;;;;;;5006002;28;20034;-91
2023/03/09 00:24:13;;;;;;;18.67;10.00;;;0.50;99.90;;;;;;4996395;28;20030;-91
2023/03/09 00:26:41;;;;;;;20.23;10.55;;;0.50;99.90;;;;;;4985863;28;20038;-91
2023/03/09 00:29:09;;;;;;;14.90;8.23;;;0.50;99.90;;;;;;4988967;28;20030;-91
2023/03/09 00:31:34;;;;;;;17.20;9.88;;;0.50;99.90;;;;;;4971702;28;20052;-91
2023/03/09 00:34:00;;;;;;;16.98;9.60;;;0.40;99.90;;;;;;4995876;28;20403;-91
2023/03/09 00:36:26;;;;;;;18.85;10.25;;;0.40;99.90;;;;;;4988337;28;20038;-91
2023/03/09 00:38:53;;;;;;;19.25;10.57;;;0.40;99.90;;;;;;4972610;28;20074;-91
2023/03/09 00:41:20;;;;;;;19.55;10.40;;;0.40;99.90;;;;;;4977166;28;20074;-91
2023/03/09 00:43:46;;;;;;;18.88;9.95;;;0.30;99.90;;;;;;4974167;28;20072;-91
2023/03/09 00:46:13;;;;;;;18.42;10.18;;;0.30;99.90;;;;;;4973726;28;20069;-91
2023/03/09 00:48:39;;;;;;;17.17;9.90;;;0.30;99.90;;;;;;4984707;28;21615;-91
2023/03/09 00:51:06;;;;;;;15.90;8.98;;;0.30;99.90;;;;;;4985068;28;20125;-91
2023/03/09 00:53:31;;;;;;;15.88;9.13;;;0.80;99.90;;;;;;4986369;28;20065;-91
2023/03/09 00:56:02;;;;;;;17.02;8.80;;;0.50;99.90;;;;;;4976009;28;20080;-91
2023/03/09 00:58:27;;;;;;;15.75;7.97;;;1.10;99.90;;;;;;4984516;28;20054;-90
2023/03/09 01:00:53;;;;;;;16.02;9.05;;;0.90;99.90;;;;;;5000306;28;20061;-90
2023/03/09 01:03:19;;;;;;;14.95;8.45;;;0.20;99.90;;;;;;4969834;28;20480;-90
2023/03/09 01:05:44;;;;;;;17.63;8.68;;;1.10;99.90;;;;;;4988204;28;20065;-91
2023/03/09 01:08:10;;;;;;;14.18;8.85;;;0.20;99.90;;;;;;4984476;28;20048;-91
2023/03/09 01:10:40;;;;;;;17.92;8.60;;;1.10;99.90;;;;;;4989715;28;20052;-91
2023/03/09 01:13:06;;;;;;;17.17;8.60;;;1.20;99.90;;;;;;5003354;28;20042;-91
2023/03/09 01:15:31;;;;;;;17.08;8.35;;;0.20;99.90;;;;;;4966228;28;20549;-91
2023/03/09 01:17:57;;;;;;;18.23;9.90;;;0.20;99.90;;;;;;4991765;28;20165;-90
2023/03/09 01:20:23;;;;;;;19.00;10.10;;;0.20;99.90;;;;;;4956397;28;20480;-91
2023/03/09 01:22:49;;;;;;;15.50;8.75;;;0.80;99.90;;;;;;5004201;28;20049;-91
2023/03/09 01:25:15;;;;;;;16.95;9.07;;;1.20;99.90;;;;;;4988264;28;20565;-91
2023/03/09 01:27:40;;;;;;;18.98;10.00;;;0.80;99.90;;;;;;5007011;28;20033;-91
2023/03/09 01:30:07;;;;;;;17.75;9.50;;;0.80;99.90;;;;;;4968685;28;20049;-91
2023/03/09 01:32:33;;;;;;;18.35;10.02;;;0.10;99.90;;;;;;4991848;28;20124;-91
2023/03/09 01:34:59;;;;;;;18.25;9.05;;;0.10;99.90;;;;;;4999927;28;20515;-91
2023/03/09 01:37:25;;;;;;;18.95;9.10;;;0.10;99.90;;;;;;4978208;28;20030;-91
2023/03/09 01:39:50;;;;;;;17.08;9.85;;;0.10;99.90;;;;;;4969884;28;20034;-91
2023/03/09 01:42:16;;;;;;;17.75;9.40;;;0.10;99.90;;;;;;4971901;28;20125;-91
2023/03/09 01:44:42;;;;;;;17.95;9.50;;;0.10;99.90;;;;;;4971869;28;20038;-91
2023/03/09 01:47:07;;;;;;;17.15;9.88;;;0.10;99.90;;;;;;4986602;28;20046;-91
2023/03/09 01:49:49;;;;;;;16.23;9.68;;;1.10;99.90;;;;;;4971392;28;20526;-91
2023/03/09 01:52:21;;;;;;;18.77;9.55;;;1.00;99.90;;;;;;4987148;28;20092;-91
2023/03/09 01:54:49;;;;;;;17.42;9.80;;;0.10;99.90;;;;;;4988952;28;20107;-92
2023/03/09 01:57:24;;;;;;;18.42;9.15;;;0.00;99.90;;;;;;5004552;28;20042;-92
2023/03/09 01:59:53;;;;;;;19.50;9.55;;;0.60;99.90;;;;;;5005863;28;20084;-92
2023/03/09 02:02:22;;;;;;;18.73;9.50;;;0.00;99.90;;;;;;5004643;28;20412;-91
2023/03/09 02:04:53;;;;;;;19.05;10.18;;;-0.10;99.90;;;;;;5000974;28;20065;-91
2023/03/09 02:07:22;;;;;;;17.30;9.73;;;0.00;99.90;;;;;;5005696;28;20037;-92
2023/03/09 02:09:59;;;;;;;17.63;9.38;;;-0.10;99.90;;;;;;5004386;28;20050;-91
2023/03/09 02:12:25;;;;;;;18.30;10.10;;;-0.10;99.90;;;;;;5005434;28;20083;-91
2023/03/09 02:14:51;;;;;;;18.67;10.20;;;-0.10;99.90;;;;;;5004709;28;20480;-91
2023/03/09 02:17:18;;;;;;;19.00;9.63;;;-0.10;99.90;;;;;;4969447;28;20087;-91
2023/03/09 02:20:10;;;;;;;19.45;9.60;;;-0.10;99.90;;;;;;4953709;28;20045;-91
2023/03/09 02:22:37;;;;;;;18.90;10.00;;;-0.10;99.90;;;;;;4992593;28;20038;-91
2023/03/09 02:25:06;;;;;;;17.88;9.98;;;0.80;99.90;;;;;;4975886;28;20404;-91
2023/03/09 02:27:33;;;;;;;20.88;11.05;;;-0.10;99.90;;;;;;5004470;28;20038;-91
2023/03/09 02:30:00;;;;;;;19.73;10.82;;;-0.10;99.90;;;;;;4995968;28;20123;-91
2023/03/09 02:32:25;;;;;;;17.90;9.75;;;0.70;99.90;;;;;;4986983;28;20121;-91
2023/03/09 02:34:51;;;;;;;17.33;9.60;;;-0.10;99.90;;;;;;4978812;28;20129;-91
2023/03/09 02:37:32;;;;;;;19.10;9.95;;;-0.10;99.90;;;;;;5010950;28;20372;-91
2023/03/09 02:40:10;;;;;;;18.08;10.30;;;-0.10;99.90;;;;;;5006151;28;20062;-91
2023/03/09 02:42:37;;;;;;;20.73;10.68;;;0.00;99.90;;;;;;4989912;28;20113;-91
2023/03/09 02:45:05;;;;;;;19.90;10.85;;;0.80;99.90;;;;;;4987625;28;20506;-91
2023/03/09 02:47:30;;;;;;;21.52;11.00;;;0.00;99.90;;;;;;4991651;28;20116;-91
2023/03/09 02:49:56;;;;;;;26.05;10.40;;;0.00;99.90;;;;;;4993750;28;20181;-91
2023/03/09 02:52:22;;;;;;;19.58;9.75;;;0.00;99.90;;;;;;4964129;28;20065;-91
2023/03/09 02:54:47;;;;;;;21.05;11.55;;;0.90;99.90;;;;;;4988136;28;20034;-91
2023/03/09 02:57:13;;;;;;;21.35;10.93;;;0.00;99.90;;;;;;5002766;28;20133;-91
2023/03/09 02:59:41;;;;;;;23.02;11.43;;;0.80;99.90;;;;;;5001061;28;20054;-91
2023/03/09 03:02:07;;;;;;;22.00;11.38;;;0.00;99.90;;;;;;4986190;28;20165;-91
2023/03/09 03:04:33;;;;;;;22.42;12.07;;;0.60;99.90;;;;;;4991011;28;20470;-91
2023/03/09 03:06:59;;;;;;;21.65;11.43;;;0.00;99.90;;;;;;4989341;28;20042;-91
2023/03/09 03:09:25;;;;;;;24.35;13.02;;;0.00;99.90;;;;;;4989349;28;20538;-92
2023/03/09 03:11:51;;;;;;;23.88;12.65;;;0.00;99.90;;;;;;4974082;28;20049;-91
2023/03/09 03:14:17;;;;;;;21.35;11.40;;;0.80;99.90;;;;;;4979686;28;20034;-92
2023/03/09 03:16:43;;;;;;;27.00;13.25;;;0.10;99.90;;;;;;4975096;28;20078;-92
2023/03/09 03:19:08;;;;;;;23.40;12.85;;;0.00;99.90;;;;;;4976354;28;20350;-91
2023/03/09 03:21:35;;;;;;;21.40;10.65;;;0.00;99.90;;;;;;4962142;28;20037;-92
2023/03/09 03:24:00;;;;;;;22.05;12.45;;;0.00;99.90;;;;;;4985291;28;20085;-92
2023/03/09 03:26:26;;;;;;;23.17;11.98;;;0.00;99.90;;;;;;4994910;28;20046;-92
2023/03/09 03:28:52;;;;;;;21.83;11.35;;;0.00;99.90;;;;;;4989729;28;20100;-91
2023/03/09 03:31:18;;;;;;;24.90;12.95;;;0.00;99.90;;;;;;4986577;28;20132;-92
2023/03/09 03:33:43;;;;;;;24.33;13.10;;;0.50;99.90;;;;;;4976009;28;20049;-93
2023/03/09 03:36:09;;;;;;;22.45;12.70;;;0.00;99.90;;;;;;4993001;28;20104;-92
2023/03/09 03:38:35;;;;;;;21.20;11.68;;;1.00;99.90;;;;;;4975415;28;20034;-92
2023/03/09 03:41:00;;;;;;;23.08;12.35;;;0.00;99.90;;;;;;4988888;28;20022;-92
2023/03/09 03:43:26;;;;;;;22.67;12.35;;;1.00;99.90;;;;;;4988606;28;20555;-91
2023/03/09 03:45:52;;;;;;;25.00;12.85;;;0.10;99.90;;;;;;5005978;28;20080;-92
2023/03/09 03:48:17;;;;;;;20.58;12.05;;;0.60;99.90;;;;;;4977895;28;20418;-92
2023/03/09 03:50:43;;;;;;;25.10;12.73;;;0.60;99.90;;;;;;4979850;28;20574;-92
2023/03/09 03:53:09;;;;;;;28.05;11.90;;;0.80;99.90;;;;;;4966018;28;20524;-92
2023/03/09 03:55:34;;;;;;;23.80;12.30;;;0.50;99.90;;;;;;5000192;28;20033;-92
2023/03/09 03:58:00;;;;;;;27.70;12.57;;;1.00;99.90;;;;;;4970528;28;20073;-92
2023/03/09 04:00:26;;;;;;;21.73;11.07;;;1.00;99.90;;;;;;4989795;28;20145;-92
2023/03/09 04:02:52;;;;;;;23.15;11.57;;;0.10;99.90;;;;;;4982525;28;20050;-92
2023/03/09 04:05:18;;;;;;;21.88;11.88;;;0.10;99.90;;;;;;4957688;28;20096;-92
2023/03/09 04:07:43;;;;;;;19.88;11.13;;;0.20;99.90;;;;;;5000374;28;20061;-92
2023/03/09 04:10:10;;;;;;;22.38;11.57;;;0.10;99.90;;;;;;4975379;28;20072;-92
2023/03/09 04:12:36;;;;;;;24.58;11.57;;;0.10;99.90;;;;;;4972412;28;20085;-92
2023/03/09 04:15:02;;;;;;;23.67;12.25;;;0.10;99.90;;;;;;4960325;28;20054;-92
2023/03/09 04:17:27;;;;;;;23.23;12.25;;;0.10;99.90;;;;;;5003614;28;20107;-92
2023/03/09 04:19:53;;;;;;;22.15;11.60;;;0.60;99.90;;;;;;4993314;28;20042;-92
2023/03/09 04:22:19;;;;;;;21.33;10.50;;;1.10;99.90;;;;;;4972504;28;20038;-93
2023/03/09 04:24:48;;;;;;;21.92;11.70;;;1.00;99.90;;;;;;4971504;28;20325;-90
2023/03/09 04:27:14;;;;;;;22.73;11.27;;;0.10;99.90;;;;;;5000026;28;20057;-92
2023/03/09 04:29:40;;;;;;;21.50;10.80;;;0.10;99.90;;;;;;4990938;28;20487;-90
2023/03/09 04:32:06;;;;;;;19.30;9.60;;;1.10;99.90;;;;;;5006608;28;20038;-92
2023/03/09 04:34:32;;;;;;;19.77;10.75;;;0.10;99.90;;;;;;4987551;28;20254;-91
2023/03/09 04:36:58;;;;;;;23.05;10.73;;;0.10;99.90;;;;;;4969835;28;20076;-91
2023/03/09 04:39:24;;;;;;;20.13;10.73;;;0.10;99.90;;;;;;4998874;28;20041;-91
2023/03/09 04:41:49;;;;;;;19.13;10.35;;;0.60;99.90;;;;;;4986221;28;20498;-90
2023/03/09 04:44:15;;;;;;;19.13;10.50;;;0.60;99.90;;;;;;4998805;28;20073;-94
2023/03/09 04:46:41;;;;;;;20.58;11.18;;;0.80;99.90;;;;;;4974010;28;20041;-90
2023/03/09 04:49:07;;;;;;;19.30;10.55;;;0.80;99.90;;;;;;4970983;28;20345;-91
2023/03/09 04:51:32;;;;;;;17.52;9.95;;;0.10;99.90;;;;;;5019197;28;20522;-91
2023/03/09 04:53:58;;;;;;;25.13;11.57;;;0.10;99.90;;;;;;4988936;28;20125;-91
2023/03/09 04:56:24;;;;;;;19.98;10.25;;;0.10;99.90;;;;;;4976135;28;20041;-92
2023/03/09 04:58:50;;;;;;;22.58;11.43;;;0.10;99.90;;;;;;4972389;28;20073;-93
2023/03/09 05:01:16;;;;;;;22.45;11.70;;;0.10;99.90;;;;;;5001575;28;20046;-89
2023/03/09 05:03:41;;;;;;;22.85;11.38;;;-0.30;99.90;;;;;;4972563;28;20030;-90
2023/03/09 05:06:07;;;;;;;20.40;10.88;;;0.00;99.90;;;;;;4985869;28;20070;-91
2023/03/09 05:08:33;;;;;;;22.80;11.45;;;0.10;99.90;;;;;;4983717;28;20040;-91
2023/03/09 05:10:59;;;;;;;20.23;10.10;;;0.00;99.90;;;;;;4984238;28;20037;-90
2023/03/09 05:13:25;;;;;;;23.02;11.18;;;0.00;99.90;;;;;;4986163;28;20507;-91
2023/03/09 05:15:50;;;;;;;24.73;11.15;;;0.80;99.90;;;;;;4971182;28;20483;-90
2023/03/09 05:18:16;;;;;;;24.23;11.95;;;0.80;99.90;;;;;;4986295;28;20038;-90
2023/03/09 05:20:42;;;;;;;23.02;11.70;;;0.00;99.90;;;;;;4988145;28;20034;-91
2023/03/09 05:23:07;;;;;;;19.70;10.63;;;0.30;99.90;;;;;;4999958;28;20062;-91
2023/03/09 05:25:33;;;;;;;23.67;10.65;;;0.40;99.90;;;;;;4982671;28;20045;-90
2023/03/09 05:27:59;;;;;;;22.92;10.43;;;0.00;99.90;;;;;;5020261;28;20047;-91
2023/03/09 05:30:25;;;;;;;24.70;12.18;;;0.00;99.90;;;;;;5017444;28;20064;-91
2023/03/09 05:32:51;;;;;;;27.42;12.65;;;0.00;99.90;;;;;;5006023;28;20065;-94
2023/03/09 05:35:18;;;;;;;22.67;11.98;;;0.00;99.90;;;;;;5001286;28;20061;-93
2023/03/09 05:37:47;;;;;;;24.80;12.45;;;0.00;99.90;;;;;;5029280;28;20044;-93
2023/03/09 05:40:14;;;;;;;23.73;12.50;;;0.00;99.90;;;;;;4998462;28;20102;-92
2023/03/09 05:42:41;;;;;;;23.10;11.75;;;-0.70;99.90;;;;;;5014627;28;20062;-92
2023/03/09 05:45:08;;;;;;;23.27;11.88;;;0.00;99.90;;;;;;5022996;28;20109;-93
2023/03/09 05:47:35;;;;;;;27.92;12.57;;;0.00;99.90;;;;;;4975145;28;20045;-92
2023/03/09 05:50:01;;;;;;;26.27;13.75;;;0.10;99.90;;;;;;4983589;28;20087;-92
2023/03/09 05:52:26;;;;;;;22.95;11.18;;;0.00;99.90;;;;;;5003441;28;20125;-91
2023/03/09 05:54:52;;;;;;;23.05;11.27;;;0.00;99.90;;;;;;4977520;28;20045;-91
2023/03/09 05:57:18;;;;;;;23.63;11.90;;;0.00;99.90;;;;;;4975945;28;20120;-91
2023/03/09 05:59:47;;;;;;;25.52;12.40;;;0.90;99.90;;;;;;4988055;28;20045;-91
2023/03/09 06:02:12;;;;;;;25.15;12.32;;;0.00;99.90;;;;;;4982704;28;20057;-90
2023/03/09 06:04:38;;;;;;;27.45;12.45;;;0.00;99.90;;;;;;4959820;28;20137;-92
2023/03/09 06:07:04;;;;;;;23.83;12.10;;;0.00;99.90;;;;;;4991667;28;20046;-91
2023/03/09 06:09:30;;;;;;;27.00;13.50;;;0.00;99.90;;;;;;4972097;28;20183;-92
2023/03/09 06:11:56;;;;;;;25.23;13.02;;;0.10;99.90;;;;;;4982603;28;20041;-92
2023/03/09 06:14:21;;;;;;;26.40;13.25;;;0.10;99.90;;;;;;5004663;28;20130;-92
2023/03/09 06:16:47;;;;;;;28.20;12.55;;;0.10;99.90;;;;;;4973749;28;20495;-91
2023/03/09 06:19:13;;;;;;;29.98;13.10;;;0.10;99.90;;;;;;4974739;28;20494;-91
2023/03/09 06:21:38;;;;;;;27.80;13.88;;;0.10;99.90;;;;;;4968859;28;20035;-93
2023/03/09 06:24:05;;;;;;;25.45;12.77;;;0.10;99.90;;;;;;4988307;28;20034;-91
2023/03/09 06:26:30;;;;;;;27.08;13.15;;;0.10;99.90;;;;;;4978841;28;20038;-92
2023/03/09 06:28:56;;;;;;;26.48;13.55;;;0.10;99.90;;;;;;4989216;28;20045;-92
2023/03/09 06:31:22;;;;;;;27.80;14.00;;;0.10;99.90;;;;;;5011142;28;20075;-91
2023/03/09 06:33:47;;;;;;;26.10;13.43;;;1.00;99.90;;;;;;4972527;28;20518;-90
2023/03/09 06:36:16;;;;;;;27.02;14.30;;;1.10;99.90;;;;;;4979156;28;20037;-91
2023/03/09 06:38:42;;;;;;;32.33;15.90;;;0.80;99.90;;;;;;4994870;28;20069;-92
2023/03/09 06:41:08;;;;;;;28.75;13.57;;;0.20;99.90;;;;;;4992948;28;20060;-91
2023/03/09 06:43:34;;;;;;;27.38;13.27;;;0.70;99.90;;;;;;4985342;28;20135;-95
2023/03/09 06:45:59;;;;;;;26.42;13.90;;;0.20;99.90;;;;;;4985748;28;20038;-91
2023/03/09 06:48:26;;;;;;;29.42;13.57;;;1.20;99.90;;;;;;4998205;28;20093;-93
2023/03/09 06:50:51;;;;;;;29.13;13.90;;;1.20;99.90;;;;;;4983099;28;20041;-90
2023/03/09 06:53:18;;;;;;;33.67;14.98;;;1.20;99.90;;;;;;4969341;28;20052;-91
2023/03/09 06:55:43;;;;;;;32.60;14.18;;;1.00;99.90;;;;;;5004759;28;20528;-91
2023/03/09 06:58:10;;;;;;;27.27;13.45;;;0.30;99.90;;;;;;5011335;28;20431;-92
2023/03/09 07:00:37;;;;;;;33.10;15.13;;;0.30;99.90;;;;;;4993980;28;20042;-92
2023/03/09 07:03:05;;;;;;;37.67;14.38;;;0.30;99.90;;;;;;4991723;28;20053;-92
2023/03/09 07:05:30;;;;;;;32.45;15.32;;;1.30;99.90;;;;;;4993164;28;20153;-92
2023/03/09 07:07:56;;;;;;;27.38;14.15;;;0.40;99.90;;;;;;4976433;28;20866;-89
2023/03/09 07:10:22;;;;;;;29.63;13.98;;;0.40;99.90;;;;;;5025411;28;20053;-92
2023/03/09 07:12:48;;;;;;;30.20;14.35;;;0.40;99.90;;;;;;4980899;28;20034;-91
2023/03/09 07:15:14;;;;;;;30.35;13.90;;;1.40;99.90;;;;;;5006617;28;20192;-92
2023/03/09 07:17:41;;;;;;;31.60;14.23;;;0.50;99.90;;;;;;4994872;28;20041;-91
2023/03/09 07:20:10;;;;;;;26.50;13.50;;;1.50;99.90;;;;;;5007391;28;20487;-93
2023/03/09 07:22:37;;;;;;;29.42;13.30;;;0.60;99.90;;;;;;4989292;28;20051;-94
2023/03/09 07:25:03;;;;;;;26.27;14.10;;;1.50;99.90;;;;;;4978597;28;20041;-91
2023/03/09 07:27:30;;;;;;;27.30;13.80;;;0.70;99.90;;;;;;4981010;28;20112;-91
2023/03/09 07:29:56;;;;;;;26.88;13.30;;;0.80;99.90;;;;;;4977368;28;20038;-89
2023/03/09 07:32:22;;;;;;;30.58;15.10;;;1.60;99.90;;;;;;4991255;28;20426;-95
2023/03/09 07:34:48;;;;;;;26.73;13.80;;;0.80;99.90;;;;;;4988545;28;20029;-93
2023/03/09 07:37:13;;;;;;;29.02;14.27;;;1.20;99.90;;;;;;4992499;28;20041;-92
2023/03/09 07:39:39;;;;;;;28.85;14.07;;;1.20;99.90;;;;;;4985574;28;20054;-91
2023/03/09 07:42:05;;;;;;;29.50;14.90;;;0.90;99.90;;;;;;5010566;28;20046;-91
2023/03/09 07:44:31;;;;;;;26.20;13.77;;;0.90;99.90;;;;;;4992879;28;20037;-88
2023/03/09 07:46:57;;;;;;;27.40;14.15;;;0.90;99.90;;;;;;4974695;28;21291;-85
2023/03/09 07:49:23;;;;;;;26.35;14.55;;;0.90;99.90;;;;;;4974979;28;20061;-90
2023/03/09 07:51:49;;;;;;;25.00;13.25;;;1.00;99.90;;;;;;4979527;28;20498;-88
2023/03/09 07:54:15;;;;;;;27.33;14.02;;;1.70;99.90;;;;;;4974833;28;20030;-88
2023/03/09 07:56:41;;;;;;;27.73;14.23;;;1.00;99.90;;;;;;4974977;28;20404;-88
2023/03/09 07:59:11;;;;;;;26.55;13.55;;;1.10;99.90;;;;;;4958438;28;20038;-89
2023/03/09 08:01:37;;;;;;;27.10;13.60;;;1.10;99.90;;;;;;4973675;28;20045;-88
2023/03/09 08:04:03;;;;;;;29.52;14.52;;;1.20;99.90;;;;;;4990861;28;20087;-87
2023/03/09 08:06:29;;;;;;;28.02;14.13;;;1.20;99.90;;;;;;4976151;28;20116;-87
2023/03/09 08:08:54;;;;;;;27.30;14.80;;;1.20;99.90;;;;;;4957199;28;20041;-86
2023/03/09 08:11:20;;;;;;;30.08;16.10;;;1.80;99.90;;;;;;4959236;28;20057;-86
2023/03/09 08:13:46;;;;;;;27.20;14.50;;;1.20;99.90;;;;;;4972684;28;20503;-86
2023/03/09 08:16:12;;;;;;;28.27;14.20;;;1.60;99.90;;;;;;4972253;28;20996;-85
2023/03/09 08:18:37;;;;;;;29.23;15.13;;;1.30;99.90;;;;;;4990914;28;20189;-86
2023/03/09 08:21:04;;;;;;;30.65;14.60;;;1.30;99.90;;;;;;4957833;28;20142;-86
2023/03/09 08:23:32;;;;;;;30.08;15.00;;;1.30;99.90;;;;;;4973051;28;20026;-82
2023/03/09 08:25:58;;;;;;;27.40;14.70;;;1.40;99.90;;;;;;4975441;28;20117;-84
2023/03/09 08:28:23;;;;;;;23.95;12.85;;;1.30;99.90;;;;;;4974251;28;20558;-82
2023/03/09 08:30:49;;;;;;;27.48;14.30;;;1.40;99.90;;;;;;4974652;28;20050;-83
2023/03/09 08:33:15;;;;;;;28.27;14.57;;;1.40;99.90;;;;;;4990132;28;20125;-91
2023/03/09 08:35:41;;;;;;;27.27;15.05;;;2.10;99.90;;;;;;4958248;28;20036;-89
2023/03/09 08:38:06;;;;;;;30.38;15.38;;;1.50;99.90;;;;;;4960202;28;20107;-90
2023/03/09 08:40:32;;;;;;;29.98;14.55;;;2.10;99.90;;;;;;4988309;28;20152;-95
2023/03/09 08:42:58;;;;;;;27.83;13.48;;;1.60;99.90;;;;;;4980283;28;20034;-94
2023/03/09 08:45:23;;;;;;;25.85;13.40;;;2.00;99.90;;;;;;4977934;28;20495;-91
2023/03/09 08:47:49;;;;;;;25.92;13.18;;;1.60;99.90;;;;;;5000328;28;20607;-93
2023/03/09 08:50:15;;;;;;;27.65;14.68;;;2.30;99.90;;;;;;4984202;28;20034;-93
2023/03/09 08:52:41;;;;;;;27.55;14.77;;;1.60;99.90;;;;;;4991189;28;20080;-94
2023/03/09 08:55:08;;;;;;;26.65;14.30;;;1.60;99.90;;;;;;4975750;28;20029;-93
2023/03/09 08:57:34;;;;;;;25.52;13.95;;;1.60;99.90;;;;;;5007811;28;20037;-93
2023/03/09 09:00:00;;;;;;;26.42;14.02;;;1.70;99.90;;;;;;5000592;28;20120;-94
2023/03/09 09:02:26;;;;;;;29.05;14.65;;;1.60;99.90;;;;;;4990457;28;20506;-93
2023/03/09 09:04:52;;;;;;;29.10;14.60;;;1.70;99.90;;;;;;5001931;28;20046;-94
2023/03/09 09:07:19;;;;;;;24.98;14.40;;;1.70;99.90;;;;;;4985556;28;20121;-95
2023/03/09 09:09:45;;;;;;;25.27;13.73;;;2.20;99.90;;;;;;5005703;28;20041;-95
2023/03/09 09:12:11;;;;;;;26.92;14.25;;;1.80;99.90;;;;;;4990451;28;20483;-96
2023/03/09 09:14:38;;;;;;;25.25;14.10;;;2.00;99.90;;;;;;4990222;28;20128;-96
2023/03/09 09:17:06;;;;;;;28.17;14.70;;;1.80;99.90;;;;;;4991950;28;20042;-95
2023/03/09 09:19:33;;;;;;;25.23;13.70;;;1.80;99.90;;;;;;4989244;28;20617;-96
2023/03/09 09:21:59;;;;;;;26.05;14.27;;;2.00;99.90;;;;;;5007733;28;20038;-95
2023/03/09 09:24:25;;;;;;;24.85;14.10;;;2.50;99.90;;;;;;5012240;28;20045;-95
2023/03/09 09:26:54;;;;;;;26.50;13.95;;;2.50;99.90;;;;;;4967141;28;20046;-91
2023/03/09 09:29:20;;;;;;;28.67;15.25;;;2.00;99.90;;;;;;4996397;28;20040;-89
2023/03/09 09:31:48;;;;;;;27.73;15.70;;;2.10;99.90;;;;;;4973119;28;20046;-90
2023/03/09 09:34:13;;;;;;;29.23;15.05;;;2.20;99.90;;;;;;5002810;28;20033;-88
2023/03/09 09:36:40;;;;;;;25.13;14.60;;;2.30;99.90;;;;;;4972056;28;20037;-90
2023/03/09 09:39:06;;;;;;;24.90;13.25;;;2.40;99.90;;;;;;5013750;28;20073;-89
2023/03/09 09:41:41;;;;;;;28.33;14.57;;;2.40;99.90;;;;;;5011620;28;20044;-90
2023/03/09 09:44:15;;;;;;;24.70;13.23;;;2.40;99.90;;;;;;4998608;28;20041;-90
2023/03/09 09:46:41;;;;;;;26.40;14.82;;;2.50;99.90;;;;;;5018971;28;20117;-90
2023/03/09 09:49:21;;;;;;;27.55;13.55;;;3.40;99.90;;;;;;4984759;28;20128;-90
2023/03/09 09:52:04;;;;;;;23.30;13.25;;;2.50;99.90;;;;;;5013671;28;20088;-90
2023/03/09 09:54:39;;;;;;;25.48;12.93;;;2.50;99.90;;;;;;5015701;28;20120;-89
2023/03/09 09:57:21;;;;;;;23.17;12.82;;;2.50;99.90;;;;;;4996939;28;20073;-90
2023/03/09 10:00:01;;;;;;;25.35;13.40;;;2.50;99.90;;;;;;5014694;28;20049;-89
2023/03/09 10:02:54;;;;;;;27.33;13.38;;;2.50;99.90;;;;;;5000025;28;20518;-89
2023/03/09 10:05:31;;;;;;;24.02;13.18;;;2.50;99.90;;;;;;5004651;28;20099;-90
2023/03/09 10:08:24;;;;;;;30.23;13.98;;;2.60;99.90;;;;;;4996483;28;20045;-90
2023/03/09 10:10:50;;;;;;;26.02;12.85;;;2.50;99.90;;;;;;5004236;28;20045;-90
2023/03/09 10:13:24;;;;;;;25.25;14.40;;;3.00;99.90;;;;;;4989654;28;20038;-90
2023/03/09 10:15:51;;;;;;;25.50;12.98;;;2.60;99.90;;;;;;5005398;28;20049;-89
2023/03/09 10:18:25;;;;;;;27.23;13.55;;;2.60;99.90;;;;;;5002459;28;20122;-90
2023/03/09 10:20:53;;;;;;;24.75;13.50;;;2.60;99.90;;;;;;5018398;28;20088;-88
2023/03/09 10:23:32;;;;;;;23.38;12.82;;;2.60;99.90;;;;;;5008947;28;20107;-90
2023/03/09 10:26:21;;;;;;;25.02;13.40;;;2.60;99.90;;;;;;5002969;28;20049;-89
2023/03/09 10:28:48;;;;;;;25.50;13.60;;;2.60;99.90;;;;;;5000985;28;20029;-90
2023/03/09 10:31:22;;;;;;;25.92;13.77;;;2.60;99.90;;;;;;5014423;28;20038;-88
2023/03/09 10:34:00;;;;;;;23.38;12.98;;;2.80;99.90;;;;;;5017403;28;20119;-94
2023/03/09 10:36:39;;;;;;;25.77;13.70;;;2.60;99.90;;;;;;5004080;28;20057;-96
2023/03/09 10:39:16;;;;;;;23.80;13.43;;;2.60;99.90;;;;;;5001349;28;20449;-90
2023/03/09 10:41:42;;;;;;;23.02;12.90;;;3.00;99.90;;;;;;4982117;28;20107;-94
2023/03/09 10:44:14;;;;;;;26.33;13.90;;;2.60;99.90;;;;;;4997889;28;20491;-85
2023/03/09 10:47:00;;;;;;;24.45;12.85;;;2.70;99.90;;;;;;4993099;28;20053;-86
2023/03/09 10:49:27;;;;;;;23.85;13.25;;;2.50;99.90;;;;;;5003949;28;20038;-85
2023/03/09 10:52:00;;;;;;;22.40;13.20;;;2.50;99.90;;;;;;4993066;28;20042;-96
2023/03/09 10:54:37;;;;;;;25.33;13.95;;;2.50;99.90;;;;;;5026415;28;20037;-93
2023/03/09 10:57:29;;;;;;;25.95;13.77;;;2.50;99.90;;;;;;4998375;28;20080;-91
2023/03/09 11:00:14;;;;;;;23.80;13.75;;;2.60;99.90;;;;;;4992966;28;20052;-87
2023/03/09 11:02:59;;;;;;;25.38;14.18;;;2.60;99.90;;;;;;4999026;28;20041;-91
2023/03/09 11:05:33;;;;;;;26.30;13.88;;;2.60;99.90;;;;;;5010735;28;20038;-96
2023/03/09 11:08:57;;;;;;;23.13;12.85;;;2.70;99.90;;;;;;5011921;28;20050;-96
2023/03/09 11:12:29;;;;;;;28.17;13.70;;;2.20;99.90;;;;;;5010572;28;20046;-91
2023/03/09 11:14:56;;;;;;;23.60;12.73;;;2.60;99.90;;;;;;5029497;23;20112;-65
2023/03/09 11:17:43;;;;;;;26.13;14.23;;;2.80;99.90;;;;;;5031352;28;20053;-65
2023/03/09 11:20:12;;;;;;;24.35;14.13;;;2.80;99.90;;;;;;5032490;28;20525;-65
2023/03/09 11:22:42;;;;;;;23.15;12.60;;;2.90;99.90;;;;;;5031369;28;20429;-65
2023/03/09 11:25:48;;;;;;;23.65;13.70;;;2.90;99.90;;;;;;5027775;28;20053;-65
2023/03/09 11:28:30;;;;;;;23.52;13.68;;;3.00;99.90;;;;;;4977744;28;20093;-65
2023/03/09 11:30:57;;;;;;;22.73;13.90;;;3.10;99.90;;;;;;5019153;28;20721;-65
2023/03/09 11:33:24;;;;;;;22.77;12.85;;;3.20;99.90;;;;;;5022961;28;20596;-65
2023/03/09 11:35:53;;;;;;;27.40;13.48;;;3.20;99.90;;;;;;5022105;28;20041;-65
2023/03/09 11:39:05;;;;;;;25.17;13.73;;;3.30;99.90;;;;;;5024565;28;20390;-65
2023/03/09 11:41:36;;;;;;;25.67;13.10;;;3.30;99.90;;;;;;5034491;22;20041;-92
2023/03/09 11:44:28;;;;;;;24.30;13.35;;;3.20;99.90;;;;;;4958249;28;20069;-87
2023/03/09 11:46:59;;;;;;;30.58;14.82;;;3.10;99.90;;;;;;4977997;28;20118;-89
2023/03/09 11:49:26;;;;;;;27.75;14.55;;;3.20;99.90;;;;;;4977466;28;20044;-86
2023/03/09 11:51:53;;;;;;;25.35;14.35;;;3.20;99.90;;;;;;4962314;28;20046;-87
2023/03/09 11:54:24;;;;;;;24.48;13.38;;;3.10;99.90;;;;;;4962188;28;20145;-89
2023/03/09 11:56:51;;;;;;;24.33;13.88;;;3.30;99.90;;;;;;4978370;28;20112;-85
2023/03/09 11:59:28;;;;;;;23.63;13.70;;;3.60;99.90;;;;;;4978291;28;20693;-87
2023/03/09 12:02:13;;;;;;;24.85;14.32;;;3.40;99.90;;;;;;4974532;28;20048;-89
2023/03/09 12:04:39;;;;;;;21.73;12.50;;;3.50;99.90;;;;;;4959717;28;20375;-87
2023/03/09 12:08:02;;;;;;;21.27;12.00;;;3.00;99.90;;;;;;4958120;28;20073;-92
2023/03/09 12:10:50;;;;;;;22.83;12.30;;;3.60;99.90;;;;;;4902929;29;20035;-91
2023/03/09 12:13:25;;;;;;;23.23;13.27;;;3.60;99.90;;;;;;4978907;28;20066;-92
2023/03/09 12:16:26;;;;;;;21.63;12.30;;;3.70;99.90;;;;;;4961195;28;20050;-93
2023/03/09 12:19:03;;;;;;;21.80;13.05;;;3.40;99.90;;;;;;4991469;28;20054;-89
2023/03/09 12:21:38;;;;;;;24.23;13.27;;;3.80;99.90;;;;;;4957139;28;20046;-86
2023/03/09 12:24:26;;;;;;;21.77;13.10;;;3.80;99.90;;;;;;4959864;28;20403;-87
2023/03/09 12:27:06;;;;;;;24.85;13.40;;;3.80;99.90;;;;;;4961300;28;20045;-88
2023/03/09 12:29:39;;;;;;;22.15;11.68;;;3.80;99.90;;;;;;4963232;28;20041;-88
2023/03/09 12:32:23;;;;;;;22.85;13.45;;;3.80;99.90;;;;;;4961336;28;20435;-87
2023/03/09 12:34:51;;;;;;;24.15;13.20;;;3.80;99.90;;;;;;4966441;28;20054;-91
2023/03/09 12:37:35;;;;;;;23.08;13.02;;;3.70;99.90;;;;;;4985510;28;20444;-85
2023/03/09 12:40:29;;;;;;;22.95;12.13;;;3.60;99.90;;;;;;4997691;28;20068;-86
2023/03/09 12:43:16;;;;;;;25.05;12.93;;;3.50;99.90;;;;;;4988205;28;20058;-88
2023/03/09 12:45:45;;;;;;;23.77;12.77;;;3.70;99.90;;;;;;4979465;28;20053;-88
2023/03/09 12:48:13;;;;;;;23.83;12.70;;;3.50;99.90;;;;;;4997156;28;20042;-88
2023/03/09 12:50:42;;;;;;;22.10;12.75;;;3.40;99.90;;;;;;4989890;28;20038;-88